sensor_id;sensor_type;location;lat;lon;timestamp;pressure;altitude;pressure_sealevel;temperature;humidity
13027;BME280;6580;42.680;23.324;2023-01-28T00:01:25;94680.31;;;2.23;100.00
13027;BME280;6580;42.680;23.324;2023-01-28T00:03:53;94679.75;;;1.98;100.00
13027;BME280;6580;42.680;23.324;2023-01-28T00:06:20;94684.63;;;2.13;100.00
13027;BME280;6580;42.680;23.324;2023-01-28T00:08:47;94685.56;;;2.23;100.00
13027;BME280;6580;42.680;23.324;2023-01-28T00:11:14;94695.72;;;2.16;100.00
13027;BME280;6580;42.680;23.324;2023-01-28T00:13:40;94680.19;;;2.13;100.00
13027;BME280;6580;42.680;23.324;2023-01-28T00:16:08;94702.28;;;2.11;100.00
13027;BME280;6580;42.680;23.324;2023-01-28T00:18:35;94705.13;;;2.19;100.00
13027;BME280;6580;42.680;23.324;2023-01-28T00:21:06;94700.97;;;2.27;100.00
13027;BME280;6580;42.680;23.324;2023-01-28T00:23:34;94704.75;;;2.34;100.00
13027;BME280;6580;42.680;23.324;2023-01-28T00:26:05;94709.91;;;2.25;100.00
13027;BME280;6580;42.680;23.324;2023-01-28T00:28:42;94703.00;;;2.13;100.00
13027;BME280;6580;42.680;23.324;2023-01-28T00:31:14;94701.22;;;2.02;100.00
13027;BME280;6580;42.680;23.324;2023-01-28T00:33:41;94708.03;;;2.05;100.00
13027;BME280;6580;42.680;23.324;2023-01-28T00:36:11;94710.38;;;2.19;100.00
13027;BME280;6580;42.680;23.324;2023-01-28T00:38:38;94711.84;;;2.01;100.00
13027;BME280;6580;42.680;23.324;2023-01-28T00:41:07;94727.47;;;2.13;100.00
13027;BME280;6580;42.680;23.324;2023-01-28T00:43:35;94716.63;;;2.07;100.00
13027;BME280;6580;42.680;23.324;2023-01-28T00:46:02;94722.00;;;2.05;100.00
13027;BME280;6580;42.680;23.324;2023-01-28T00:48:35;94725.69;;;2.14;100.00
13027;BME280;6580;42.680;23.324;2023-01-28T00:51:02;94725.06;;;2.10;100.00
13027;BME280;6580;42.680;23.324;2023-01-28T00:53:30;94723.06;;;2.03;100.00
13027;BME280;6580;42.680;23.324;2023-01-28T00:56:01;94721.88;;;2.07;100.00
13027;BME280;6580;42.680;23.324;2023-01-28T00:58:27;94732.59;;;2.04;100.00
13027;BME280;6580;42.680;23.324;2023-01-28T01:00:54;94724.97;;;2.12;100.00
13027;BME280;6580;42.680;23.324;2023-01-28T01:03:21;94724.00;;;2.02;100.00
13027;BME280;6580;42.680;23.324;2023-01-28T01:05:47;94711.97;;;1.89;100.00
13027;BME280;6580;42.680;23.324;2023-01-28T01:08:14;94723.19;;;2.01;100.00
13027;BME280;6580;42.680;23.324;2023-01-28T01:10:42;94724.84;;;2.02;100.00
13027;BME280;6580;42.680;23.324;2023-01-28T01:13:09;94722.72;;;2.07;100.00
13027;BME280;6580;42.680;23.324;2023-01-28T01:15:36;94723.78;;;2.16;100.00
13027;BME280;6580;42.680;23.324;2023-01-28T01:18:03;94728.56;;;2.11;100.00
13027;BME280;6580;42.680;23.324;2023-01-28T01:20:35;94723.53;;;2.08;100.00
13027;BME280;6580;42.680;23.324;2023-01-28T01:23:04;94732.50;;;2.16;100.00
13027;BME280;6580;42.680;23.324;2023-01-28T01:25:31;94731.28;;;2.09;100.00
13027;BME280;6580;42.680;23.324;2023-01-28T01:28:00;94729.28;;;2.13;100.00
13027;BME280;6580;42.680;23.324;2023-01-28T01:30:26;94727.94;;;2.18;100.00
13027;BME280;6580;42.680;23.324;2023-01-28T01:32:53;94734.41;;;2.14;100.00
13027;BME280;6580;42.680;23.324;2023-01-28T01:35:20;94731.91;;;2.13;100.00
13027;BME280;6580;42.680;23.324;2023-01-28T01:37:46;94736.19;;;2.03;100.00
13027;BME280;6580;42.680;23.324;2023-01-28T01:40:15;94733.06;;;2.20;100.00
13027;BME280;6580;42.680;23.324;2023-01-28T01:42:41;94736.31;;;2.12;100.00
13027;BME280;6580;42.680;23.324;2023-01-28T01:45:12;94725.94;;;2.00;100.00
13027;BME280;6580;42.680;23.324;2023-01-28T01:47:45;94736.06;;;1.94;100.00
13027;BME280;6580;42.680;23.324;2023-01-28T01:50:18;94733.34;;;1.95;100.00
13027;BME280;6580;42.680;23.324;2023-01-28T01:52:50;94730.34;;;1.99;100.00
13027;BME280;6580;42.680;23.324;2023-01-28T01:55:20;94729.63;;;1.98;100.00
13027;BME280;6580;42.680;23.324;2023-01-28T01:57:50;94732.38;;;2.07;100.00
13027;BME280;6580;42.680;23.324;2023-01-28T02:00:22;94733.44;;;2.15;100.00
13027;BME280;6580;42.680;23.324;2023-01-28T02:02:50;94732.38;;;2.07;100.00
13027;BME280;6580;42.680;23.324;2023-01-28T02:05:20;94740.50;;;1.93;100.00
13027;BME280;6580;42.680;23.324;2023-01-28T02:07:49;94738.59;;;1.95;100.00
13027;BME280;6580;42.680;23.324;2023-01-28T02:10:16;94745.97;;;1.90;100.00
13027;BME280;6580;42.680;23.324;2023-01-28T02:12:46;94748.72;;;1.89;100.00
13027;BME280;6580;42.680;23.324;2023-01-28T02:15:16;94753.84;;;1.90;100.00
13027;BME280;6580;42.680;23.324;2023-01-28T02:17:46;94746.94;;;1.78;100.00
13027;BME280;6580;42.680;23.324;2023-01-28T02:20:18;94751.22;;;2.01;100.00
13027;BME280;6580;42.680;23.324;2023-01-28T02:23:02;94751.34;;;1.99;100.00
13027;BME280;6580;42.680;23.324;2023-01-28T02:28:47;94759.59;;;1.95;100.00
13027;BME280;6580;42.680;23.324;2023-01-28T02:31:22;94744.31;;;1.89;100.00
13027;BME280;6580;42.680;23.324;2023-01-28T02:33:55;94756.47;;;1.90;100.00
13027;BME280;6580;42.680;23.324;2023-01-28T02:36:29;94749.56;;;2.00;100.00
13027;BME280;6580;42.680;23.324;2023-01-28T02:39:04;94754.09;;;1.98;100.00
13027;BME280;6580;42.680;23.324;2023-01-28T02:41:37;94744.56;;;1.97;100.00
13027;BME280;6580;42.680;23.324;2023-01-28T02:44:07;94753.97;;;1.89;100.00
13027;BME280;6580;42.680;23.324;2023-01-28T02:46:37;94734.75;;;1.88;100.00
13027;BME280;6580;42.680;23.324;2023-01-28T02:49:25;94751.22;;;1.90;100.00
13027;BME280;6580;42.680;23.324;2023-01-28T02:52:24;94757.78;;;1.85;100.00
13027;BME280;6580;42.680;23.324;2023-01-28T02:55:13;94756.72;;;1.76;100.00
13027;BME280;6580;42.680;23.324;2023-01-28T02:57:46;94750.25;;;1.69;100.00
13027;BME280;6580;42.680;23.324;2023-01-28T03:00:22;94759.81;;;1.92;100.00
13027;BME280;6580;42.680;23.324;2023-01-28T03:05:39;94764.47;;;1.89;100.00
13027;BME280;6580;42.680;23.324;2023-01-28T03:08:22;94751.47;;;1.76;100.00
13027;BME280;6580;42.680;23.324;2023-01-28T03:11:09;94760.28;;;1.86;100.00
13027;BME280;6580;42.680;23.324;2023-01-28T03:13:54;94759.31;;;1.87;100.00
13027;BME280;6580;42.680;23.324;2023-01-28T03:16:40;94764.00;;;1.84;100.00
13027;BME280;6580;42.680;23.324;2023-01-28T03:19:28;94757.88;;;1.72;100.00
13027;BME280;6580;42.680;23.324;2023-01-28T03:22:13;94769.81;;;1.76;100.00
13027;BME280;6580;42.680;23.324;2023-01-28T03:24:59;94756.56;;;1.78;100.00
13027;BME280;6580;42.680;23.324;2023-01-28T03:27:48;94763.84;;;1.85;100.00
13027;BME280;6580;42.680;23.324;2023-01-28T03:30:37;94769.81;;;1.76;100.00
13027;BME280;6580;42.680;23.324;2023-01-28T03:33:31;94771.75;;;1.96;100.00
13027;BME280;6580;42.680;23.324;2023-01-28T03:36:17;94766.81;;;1.59;100.00
13027;BME280;6580;42.680;23.324;2023-01-28T03:39:02;94771.00;;;1.61;100.00
13027;BME280;6580;42.680;23.324;2023-01-28T03:41:28;94775.31;;;1.84;100.00
13027;BME280;6580;42.680;23.324;2023-01-28T03:43:55;94777.13;;;1.84;100.00
13027;BME280;6580;42.680;23.324;2023-01-28T03:46:22;94775.56;;;1.81;100.00
13027;BME280;6580;42.680;23.324;2023-01-28T03:48:51;94778.41;;;1.78;100.00
13027;BME280;6580;42.680;23.324;2023-01-28T03:51:20;94778.53;;;1.77;100.00
13027;BME280;6580;42.680;23.324;2023-01-28T03:53:47;94782.72;;;1.79;100.00
13027;BME280;6580;42.680;23.324;2023-01-28T03:56:16;94781.50;;;1.72;100.00
13027;BME280;6580;42.680;23.324;2023-01-28T03:58:50;94786.66;;;1.85;100.00
13027;BME280;6580;42.680;23.324;2023-01-28T04:01:21;94780.69;;;1.83;100.00
13027;BME280;6580;42.680;23.324;2023-01-28T04:03:48;94786.53;;;1.75;100.00
13027;BME280;6580;42.680;23.324;2023-01-28T04:06:16;94785.56;;;1.76;100.00
13027;BME280;6580;42.680;23.324;2023-01-28T04:08:43;94792.59;;;1.65;100.00
13027;BME280;6580;42.680;23.324;2023-01-28T04:11:13;94785.53;;;1.65;100.00
13027;BME280;6580;42.680;23.324;2023-01-28T04:13:44;94793.91;;;1.70;100.00
13027;BME280;6580;42.680;23.324;2023-01-28T04:16:15;94790.34;;;1.82;100.00
13027;BME280;6580;42.680;23.324;2023-01-28T04:18:42;94791.78;;;1.86;100.00
13027;BME280;6580;42.680;23.324;2023-01-28T04:21:09;94787.97;;;1.90;100.00
13027;BME280;6580;42.680;23.324;2023-01-28T04:23:38;94798.47;;;1.79;100.00
13027;BME280;6580;42.680;23.324;2023-01-28T04:26:04;94786.38;;;1.66;100.00
13027;BME280;6580;42.680;23.324;2023-01-28T04:28:31;94807.88;;;1.71;100.00
13027;BME280;6580;42.680;23.324;2023-01-28T04:30:58;94802.63;;;1.71;100.00
13027;BME280;6580;42.680;23.324;2023-01-28T04:33:26;94805.13;;;1.61;100.00
13027;BME280;6580;42.680;23.324;2023-01-28T04:35:53;94802.84;;;1.68;100.00
13027;BME280;6580;42.680;23.324;2023-01-28T04:38:23;94810.72;;;1.68;100.00
13027;BME280;6580;42.680;23.324;2023-01-28T04:40:52;94820.81;;;1.50;100.00
13027;BME280;6580;42.680;23.324;2023-01-28T04:43:19;94819.91;;;1.62;100.00
13027;BME280;6580;42.680;23.324;2023-01-28T04:45:47;94822.28;;;1.65;100.00
13027;BME280;6580;42.680;23.324;2023-01-28T04:48:14;94818.69;;;1.66;100.00
13027;BME280;6580;42.680;23.324;2023-01-28T04:50:42;94826.56;;;1.66;100.00
13027;BME280;6580;42.680;23.324;2023-01-28T04:53:10;94837.78;;;1.57;100.00
13027;BME280;6580;42.680;23.324;2023-01-28T04:55:39;94828.06;;;1.47;100.00
13027;BME280;6580;42.680;23.324;2023-01-28T04:58:08;94835.03;;;1.59;100.00
13027;BME280;6580;42.680;23.324;2023-01-28T05:00:35;94839.00;;;1.41;100.00
13027;BME280;6580;42.680;23.324;2023-01-28T05:03:02;94816.91;;;1.32;100.00
13027;BME280;6580;42.680;23.324;2023-01-28T05:05:30;94839.22;;;1.38;100.00
13027;BME280;6580;42.680;23.324;2023-01-28T05:07:57;94828.75;;;1.38;100.00
13027;BME280;6580;42.680;23.324;2023-01-28T05:10:25;94843.06;;;1.34;100.00
13027;BME280;6580;42.680;23.324;2023-01-28T05:12:53;94826.44;;;1.22;100.00
13027;BME280;6580;42.680;23.324;2023-01-28T05:15:22;94851.22;;;1.29;100.00
13027;BME280;6580;42.680;23.324;2023-01-28T05:17:49;94855.25;;;1.46;100.00
13027;BME280;6580;42.680;23.324;2023-01-28T05:20:16;94855.47;;;1.43;100.00
13027;BME280;6580;42.680;23.324;2023-01-28T05:22:43;94862.34;;;1.56;100.00
13027;BME280;6580;42.680;23.324;2023-01-28T05:25:10;94862.94;;;1.60;100.00
13027;BME280;6580;42.680;23.324;2023-01-28T05:27:37;94831.66;;;1.57;100.00
13027;BME280;6580;42.680;23.324;2023-01-28T05:30:05;94855.91;;;1.60;100.00
13027;BME280;6580;42.680;23.324;2023-01-28T05:32:34;94858.78;;;1.68;100.00
13027;BME280;6580;42.680;23.324;2023-01-28T05:35:01;94843.75;;;1.59;100.00
13027;BME280;6580;42.680;23.324;2023-01-28T05:37:30;94869.19;;;1.70;100.00
13027;BME280;6580;42.680;23.324;2023-01-28T05:39:57;94865.75;;;1.80;100.00
13027;BME280;6580;42.680;23.324;2023-01-28T05:42:24;94862.13;;;1.70;100.00
13027;BME280;6580;42.680;23.324;2023-01-28T05:44:52;94867.84;;;1.64;100.00
13027;BME280;6580;42.680;23.324;2023-01-28T05:47:18;94862.84;;;1.61;100.00
13027;BME280;6580;42.680;23.324;2023-01-28T05:49:47;94867.66;;;1.44;100.00
13027;BME280;6580;42.680;23.324;2023-01-28T05:52:14;94852.84;;;1.43;100.00
13027;BME280;6580;42.680;23.324;2023-01-28T05:54:41;94874.94;;;1.51;100.00
13027;BME280;6580;42.680;23.324;2023-01-28T05:57:09;94889.16;;;1.60;100.00
13027;BME280;6580;42.680;23.324;2023-01-28T05:59:36;94872.13;;;1.65;100.00
13027;BME280;6580;42.680;23.324;2023-01-28T06:02:02;94879.25;;;1.52;100.00
13027;BME280;6580;42.680;23.324;2023-01-28T06:04:30;94880.16;;;1.75;100.00
13027;BME280;6580;42.680;23.324;2023-01-28T06:06:58;94892.53;;;1.62;100.00
13027;BME280;6580;42.680;23.324;2023-01-28T06:09:25;94896.47;;;1.67;100.00
13027;BME280;6580;42.680;23.324;2023-01-28T06:11:52;94909.13;;;1.62;100.00
13027;BME280;6580;42.680;23.324;2023-01-28T06:14:19;94906.25;;;1.65;100.00
13027;BME280;6580;42.680;23.324;2023-01-28T06:16:46;94905.47;;;1.76;100.00
13027;BME280;6580;42.680;23.324;2023-01-28T06:19:13;94919.16;;;1.68;100.00
13027;BME280;6580;42.680;23.324;2023-01-28T06:21:41;94914.47;;;1.61;100.00
13027;BME280;6580;42.680;23.324;2023-01-28T06:24:10;94919.84;;;1.59;100.00
13027;BME280;6580;42.680;23.324;2023-01-28T06:26:38;94920.44;;;1.63;100.00
13027;BME280;6580;42.680;23.324;2023-01-28T06:29:05;94926.28;;;1.66;100.00
13027;BME280;6580;42.680;23.324;2023-01-28T06:31:33;94919.72;;;1.37;100.00
13027;BME280;6580;42.680;23.324;2023-01-28T06:34:01;94919.66;;;1.50;100.00
13027;BME280;6580;42.680;23.324;2023-01-28T06:36:29;94934.84;;;1.57;100.00
13027;BME280;6580;42.680;23.324;2023-01-28T06:38:57;94936.13;;;1.75;100.00
13027;BME280;6580;42.680;23.324;2023-01-28T06:41:26;94939.47;;;1.77;100.00
13027;BME280;6580;42.680;23.324;2023-01-28T06:43:53;94938.34;;;1.92;100.00
13027;BME280;6580;42.680;23.324;2023-01-28T06:46:20;94942.13;;;1.88;100.00
13027;BME280;6580;42.680;23.324;2023-01-28T06:48:49;94946.84;;;1.72;100.00
13027;BME280;6580;42.680;23.324;2023-01-28T06:51:15;94951.03;;;1.75;100.00
13027;BME280;6580;42.680;23.324;2023-01-28T06:53:42;94965.03;;;1.86;100.00
13027;BME280;6580;42.680;23.324;2023-01-28T06:56:09;94963.84;;;1.79;100.00
13027;BME280;6580;42.680;23.324;2023-01-28T06:58:39;94957.50;;;1.82;100.00
13027;BME280;6580;42.680;23.324;2023-01-28T07:01:06;94959.69;;;1.64;100.00
13027;BME280;6580;42.680;23.324;2023-01-28T07:03:33;94968.56;;;1.74;100.00
13027;BME280;6580;42.680;23.324;2023-01-28T07:06:00;94953.78;;;1.73;100.00
13027;BME280;6580;42.680;23.324;2023-01-28T07:08:28;94967.78;;;1.85;100.00
13027;BME280;6580;42.680;23.324;2023-01-28T07:10:55;94974.69;;;2.09;100.00
13027;BME280;6580;42.680;23.324;2023-01-28T07:13:22;94963.03;;;1.90;100.00
13027;BME280;6580;42.680;23.324;2023-01-28T07:15:51;94966.16;;;1.71;100.00
13027;BME280;6580;42.680;23.324;2023-01-28T07:18:18;94989.84;;;1.82;100.00
13027;BME280;6580;42.680;23.324;2023-01-28T07:20:47;94994.28;;;1.93;100.00
13027;BME280;6580;42.680;23.324;2023-01-28T07:23:13;94985.75;;;2.01;100.00
13027;BME280;6580;42.680;23.324;2023-01-28T07:25:40;94983.00;;;2.03;100.00
13027;BME280;6580;42.680;23.324;2023-01-28T07:28:07;94986.03;;;1.86;100.00
13027;BME280;6580;42.680;23.324;2023-01-28T07:30:34;94992.53;;;1.93;100.00
13027;BME280;6580;42.680;23.324;2023-01-28T07:33:03;94996.09;;;1.92;100.00
13027;BME280;6580;42.680;23.324;2023-01-28T07:35:30;94997.09;;;2.02;100.00
13027;BME280;6580;42.680;23.324;2023-01-28T07:37:59;95006.16;;;1.98;100.00
13027;BME280;6580;42.680;23.324;2023-01-28T07:40:27;94999.06;;;2.11;100.00
13027;BME280;6580;42.680;23.324;2023-01-28T07:42:54;95008.22;;;2.05;100.00
13027;BME280;6580;42.680;23.324;2023-01-28T07:45:23;95013.69;;;2.02;100.00
13027;BME280;6580;42.680;23.324;2023-01-28T07:47:55;95009.78;;;2.08;100.00
13027;BME280;6580;42.680;23.324;2023-01-28T07:50:24;95018.94;;;2.02;100.00
13027;BME280;6580;42.680;23.324;2023-01-28T07:52:53;95006.97;;;2.22;100.00
13027;BME280;6580;42.680;23.324;2023-01-28T07:55:20;95012.50;;;2.30;100.00
13027;BME280;6580;42.680;23.324;2023-01-28T07:57:49;95014.41;;;2.28;100.00
13027;BME280;6580;42.680;23.324;2023-01-28T08:00:17;95019.16;;;1.99;100.00
13027;BME280;6580;42.680;23.324;2023-01-28T08:02:44;95019.72;;;2.15;100.00
13027;BME280;6580;42.680;23.324;2023-01-28T08:05:14;95026.72;;;2.38;100.00
13027;BME280;6580;42.680;23.324;2023-01-28T08:07:44;95027.56;;;2.39;100.00
13027;BME280;6580;42.680;23.324;2023-01-28T08:10:12;95015.22;;;2.28;100.00
13027;BME280;6580;42.680;23.324;2023-01-28T08:12:39;95031.53;;;2.44;100.00
13027;BME280;6580;42.680;23.324;2023-01-28T08:15:07;95034.25;;;2.43;100.00
13027;BME280;6580;42.680;23.324;2023-01-28T08:17:36;95034.72;;;2.37;100.00
13027;BME280;6580;42.680;23.324;2023-01-28T08:20:03;95033.22;;;2.45;100.00
13027;BME280;6580;42.680;23.324;2023-01-28T08:22:31;95034.31;;;2.54;100.00
13027;BME280;6580;42.680;23.324;2023-01-28T08:25:00;95034.34;;;2.30;100.00
13027;BME280;6580;42.680;23.324;2023-01-28T08:27:27;95036.16;;;2.41;100.00
13027;BME280;6580;42.680;23.324;2023-01-28T08:29:53;95046.91;;;2.38;100.00
13027;BME280;6580;42.680;23.324;2023-01-28T08:32:20;95041.56;;;2.50;100.00
13027;BME280;6580;42.680;23.324;2023-01-28T08:34:47;95031.34;;;2.69;100.00
13027;BME280;6580;42.680;23.324;2023-01-28T08:37:14;95038.75;;;2.64;100.00
13027;BME280;6580;42.680;23.324;2023-01-28T08:39:41;95042.81;;;2.68;100.00
13027;BME280;6580;42.680;23.324;2023-01-28T08:42:10;95039.16;;;2.93;100.00
13027;BME280;6580;42.680;23.324;2023-01-28T08:44:38;95038.94;;;3.28;100.00
13027;BME280;6580;42.680;23.324;2023-01-28T08:47:05;95036.59;;;3.25;100.00
13027;BME280;6580;42.680;23.324;2023-01-28T08:49:32;95035.38;;;3.18;100.00
13027;BME280;6580;42.680;23.324;2023-01-28T08:52:03;95024.47;;;3.23;99.47
13027;BME280;6580;42.680;23.324;2023-01-28T08:54:32;95034.31;;;3.32;99.81
13027;BME280;6580;42.680;23.324;2023-01-28T08:57:00;95039.47;;;3.44;99.03
13027;BME280;6580;42.680;23.324;2023-01-28T08:59:29;95050.66;;;3.46;99.77
13027;BME280;6580;42.680;23.324;2023-01-28T09:01:58;95040.25;;;3.56;97.41
13027;BME280;6580;42.680;23.324;2023-01-28T09:04:24;95046.97;;;3.71;98.54
13027;BME280;6580;42.680;23.324;2023-01-28T09:06:52;95040.47;;;3.75;98.06
13027;BME280;6580;42.680;23.324;2023-01-28T09:09:20;95040.63;;;3.73;95.84
13027;BME280;6580;42.680;23.324;2023-01-28T09:11:47;95046.81;;;3.83;95.83
13027;BME280;6580;42.680;23.324;2023-01-28T09:14:14;95003.34;;;3.24;95.80
13027;BME280;6580;42.680;23.324;2023-01-28T09:16:42;95045.41;;;3.79;96.54
13027;BME280;6580;42.680;23.324;2023-01-28T09:19:09;95047.94;;;3.48;96.82
13027;BME280;6580;42.680;23.324;2023-01-28T09:21:38;95040.63;;;3.51;97.66
13027;BME280;6580;42.680;23.324;2023-01-28T09:24:04;95035.50;;;3.28;100.00
13027;BME280;6580;42.680;23.324;2023-01-28T09:26:32;95046.88;;;3.39;100.00
13027;BME280;6580;42.680;23.324;2023-01-28T09:29:01;95049.00;;;3.56;100.00
13027;BME280;6580;42.680;23.324;2023-01-28T09:31:30;95042.06;;;3.00;100.00
13027;BME280;6580;42.680;23.324;2023-01-28T09:34:02;95049.97;;;3.22;100.00
13027;BME280;6580;42.680;23.324;2023-01-28T09:36:29;95039.06;;;3.05;100.00
13027;BME280;6580;42.680;23.324;2023-01-28T09:38:57;95040.59;;;2.97;100.00
13027;BME280;6580;42.680;23.324;2023-01-28T09:41:25;95048.25;;;3.10;100.00
13027;BME280;6580;42.680;23.324;2023-01-28T09:44:03;95045.63;;;2.89;100.00
13027;BME280;6580;42.680;23.324;2023-01-28T09:46:32;95044.19;;;2.96;100.00
13027;BME280;6580;42.680;23.324;2023-01-28T09:49:04;95049.81;;;3.02;100.00
13027;BME280;6580;42.680;23.324;2023-01-28T09:51:35;95045.28;;;3.04;100.00
13027;BME280;6580;42.680;23.324;2023-01-28T09:54:13;95024.94;;;3.06;100.00
13027;BME280;6580;42.680;23.324;2023-01-28T09:56:45;95047.09;;;3.03;100.00
13027;BME280;6580;42.680;23.324;2023-01-28T09:59:17;95043.72;;;3.12;100.00
13027;BME280;6580;42.680;23.324;2023-01-28T10:01:49;95046.00;;;3.06;100.00
13027;BME280;6580;42.680;23.324;2023-01-28T10:04:30;95035.75;;;3.14;100.00
13027;BME280;6580;42.680;23.324;2023-01-28T10:07:13;95036.09;;;3.31;100.00
13027;BME280;6580;42.680;23.324;2023-01-28T10:09:47;95037.53;;;3.24;100.00
13027;BME280;6580;42.680;23.324;2023-01-28T10:12:31;95028.09;;;3.33;100.00
13027;BME280;6580;42.680;23.324;2023-01-28T10:15:20;95036.91;;;3.21;100.00
13027;BME280;6580;42.680;23.324;2023-01-28T10:17:53;95029.50;;;3.37;100.00
13027;BME280;6580;42.680;23.324;2023-01-28T10:20:29;95034.78;;;3.26;100.00
13027;BME280;6580;42.680;23.324;2023-01-28T10:23:02;95027.63;;;3.17;100.00
13027;BME280;6580;42.680;23.324;2023-01-28T10:25:31;95034.03;;;3.02;100.00
13027;BME280;6580;42.680;23.324;2023-01-28T10:28:00;95035.00;;;3.23;100.00
13027;BME280;6580;42.680;23.324;2023-01-28T10:30:30;95036.81;;;3.22;100.00
13027;BME280;6580;42.680;23.324;2023-01-28T10:33:02;95027.72;;;3.04;100.00
13027;BME280;6580;42.680;23.324;2023-01-28T10:35:34;95033.94;;;3.36;100.00
13027;BME280;6580;42.680;23.324;2023-01-28T10:38:06;95027.97;;;3.45;100.00
13027;BME280;6580;42.680;23.324;2023-01-28T10:40:34;95031.69;;;3.54;100.00
13027;BME280;6580;42.680;23.324;2023-01-28T10:43:01;95031.63;;;3.76;100.00
13027;BME280;6580;42.680;23.324;2023-01-28T10:45:31;95033.41;;;3.86;100.00
13027;BME280;6580;42.680;23.324;2023-01-28T10:48:11;95033.25;;;3.98;100.00
13027;BME280;6580;42.680;23.324;2023-01-28T10:50:50;95025.19;;;4.11;99.30
13027;BME280;6580;42.680;23.324;2023-01-28T10:53:18;95021.19;;;4.27;99.37
13027;BME280;6580;42.680;23.324;2023-01-28T10:55:49;95030.16;;;4.36;98.91
13027;BME280;6580;42.680;23.324;2023-01-28T10:58:21;95030.84;;;4.38;99.52
13027;BME280;6580;42.680;23.324;2023-01-28T11:00:52;95027.41;;;4.58;98.19
13027;BME280;6580;42.680;23.324;2023-01-28T11:03:24;95029.06;;;4.59;95.30
13027;BME280;6580;42.680;23.324;2023-01-28T11:05:55;95014.28;;;4.15;98.27
13027;BME280;6580;42.680;23.324;2023-01-28T11:08:23;95027.53;;;4.36;96.45
13027;BME280;6580;42.680;23.324;2023-01-28T11:10:52;95030.56;;;4.52;94.13
13027;BME280;6580;42.680;23.324;2023-01-28T11:13:22;95027.22;;;4.70;93.41
13027;BME280;6580;42.680;23.324;2023-01-28T11:15:53;95002.91;;;4.15;92.82
13027;BME280;6580;42.680;23.324;2023-01-28T11:18:23;95032.78;;;4.36;93.70
13027;BME280;6580;42.680;23.324;2023-01-28T11:20:54;95019.88;;;4.33;95.82
13027;BME280;6580;42.680;23.324;2023-01-28T11:23:24;95020.97;;;4.19;96.43
13027;BME280;6580;42.680;23.324;2023-01-28T11:26:05;95021.13;;;4.07;94.75
13027;BME280;6580;42.680;23.324;2023-01-28T11:28:35;95028.59;;;3.91;95.21
13027;BME280;6580;42.680;23.324;2023-01-28T11:31:08;95022.41;;;3.81;96.92
13027;BME280;6580;42.680;23.324;2023-01-28T11:33:42;95025.25;;;4.00;93.40
13027;BME280;6580;42.680;23.324;2023-01-28T11:36:15;95034.38;;;4.27;93.48
13027;BME280;6580;42.680;23.324;2023-01-28T11:38:52;95015.31;;;4.35;90.67
13027;BME280;6580;42.680;23.324;2023-01-28T11:41:25;95016.13;;;4.56;90.72
13027;BME280;6580;42.680;23.324;2023-01-28T11:43:54;95004.56;;;4.47;89.30
13027;BME280;6580;42.680;23.324;2023-01-28T11:46:38;95015.31;;;4.35;91.18
13027;BME280;6580;42.680;23.324;2023-01-28T11:49:21;95010.28;;;4.52;90.78
13027;BME280;6580;42.680;23.324;2023-01-28T11:52:00;95003.91;;;4.34;90.26
13027;BME280;6580;42.680;23.324;2023-01-28T11:54:43;95010.94;;;4.65;88.06
13027;BME280;6580;42.680;23.324;2023-01-28T11:57:20;95016.91;;;4.47;88.47
13027;BME280;6580;42.680;23.324;2023-01-28T11:59:55;95005.66;;;4.65;87.73
13027;BME280;6580;42.680;23.324;2023-01-28T12:02:44;95009.09;;;4.56;89.31
13027;BME280;6580;42.680;23.324;2023-01-28T12:05:26;95013.63;;;4.54;89.43
13027;BME280;6580;42.680;23.324;2023-01-28T12:08:06;95006.91;;;4.61;88.08
13027;BME280;6580;42.680;23.324;2023-01-28T12:10:41;95003.09;;;4.75;88.00
13027;BME280;6580;42.680;23.324;2023-01-28T12:13:25;95013.84;;;4.83;86.93
13027;BME280;6580;42.680;23.324;2023-01-28T12:16:19;95017.56;;;4.28;88.27
13027;BME280;6580;42.680;23.324;2023-01-28T12:19:13;95015.78;;;3.97;92.65
13027;BME280;6580;42.680;23.324;2023-01-28T12:21:58;95018.03;;;4.02;92.57
13027;BME280;6580;42.680;23.324;2023-01-28T12:24:45;95010.06;;;4.24;90.53
13027;BME280;6580;42.680;23.324;2023-01-28T12:27:28;95014.53;;;4.44;88.67
13027;BME280;6580;42.680;23.324;2023-01-28T12:30:01;94979.47;;;4.32;89.13
13027;BME280;6580;42.680;23.324;2023-01-28T12:32:41;95021.94;;;4.70;90.49
13027;BME280;6580;42.680;23.324;2023-01-28T12:35:33;95018.41;;;4.60;87.87
13027;BME280;6580;42.680;23.324;2023-01-28T12:38:07;95026.56;;;4.57;89.27
13027;BME280;6580;42.680;23.324;2023-01-28T12:40:58;95006.69;;;4.74;90.31
13027;BME280;6580;42.680;23.324;2023-01-28T12:43:46;95025.53;;;4.69;88.66
13027;BME280;6580;42.680;23.324;2023-01-28T12:46:25;95027.69;;;4.75;88.58
13027;BME280;6580;42.680;23.324;2023-01-28T12:48:59;95031.13;;;4.55;89.17
13027;BME280;6580;42.680;23.324;2023-01-28T12:51:33;95030.56;;;4.52;88.47
13027;BME280;6580;42.680;23.324;2023-01-28T12:54:05;95034.06;;;4.73;91.06
13027;BME280;6580;42.680;23.324;2023-01-28T12:56:42;95020.97;;;4.71;89.09
13027;BME280;6580;42.680;23.324;2023-01-28T12:59:15;95036.81;;;4.92;87.29
13027;BME280;6580;42.680;23.324;2023-01-28T13:01:50;95044.41;;;4.65;86.53
13027;BME280;6580;42.680;23.324;2023-01-28T13:04:31;95040.28;;;4.09;90.25
13027;BME280;6580;42.680;23.324;2023-01-28T13:07:03;95049.44;;;3.83;91.33
13027;BME280;6580;42.680;23.324;2023-01-28T13:09:35;95046.75;;;4.05;91.66
13027;BME280;6580;42.680;23.324;2023-01-28T13:12:06;95052.22;;;4.24;91.84
13027;BME280;6580;42.680;23.324;2023-01-28T13:14:40;95029.22;;;3.84;90.64
13027;BME280;6580;42.680;23.324;2023-01-28T13:17:08;95060.69;;;4.38;90.70
13027;BME280;6580;42.680;23.324;2023-01-28T13:19:37;95051.16;;;4.26;90.20
13027;BME280;6580;42.680;23.324;2023-01-28T13:22:26;95062.81;;;4.13;91.23
13027;BME280;6580;42.680;23.324;2023-01-28T13:24:54;95057.13;;;3.75;92.34
13027;BME280;6580;42.680;23.324;2023-01-28T13:27:24;95065.84;;;3.87;93.84
13027;BME280;6580;42.680;23.324;2023-01-28T13:30:04;95066.69;;;3.87;93.67